^^
Saratoga-Weather Station Historical Data
Daily Summary for July 02, 2022 Units:  English    Metric   Both
Daily Weekly Monthly Yearly Custom
  High: Low: Average:
Temperature: 73.8 °F 49.6 °F 58.3 °F
Dew Point: 55.8 °F 47.1 °F 50.5 °F
Humidity: 92% 48% 77%
Wind Speed: 6.9mph 0mph 0.5mph
Wind Gust: 7mph - -
Wind- - ESE
Pressure: 30.2 in 30.1 in -
Precipitation: 0 in    
Historical Graphs
 
 
Tabular Data for July 02, 2022
Time Temperature Dew Point Pressure Wind Wind Speed Wind Gust Humidity Rainfall Rate (Hourly) solar
00:02 57.6 °F 50.4 °F 30.2 in Calm     77% 0 in 0 W/m2
00:07 57.4 °F 50.5 °F 30.2 in Calm     78% 0 in 0 W/m2
00:12 57.2 °F 50.4 °F 30.2 in Calm     78% 0 in 0 W/m2
00:17 57 °F 50.2 °F 30.2 in Calm     78% 0 in 0 W/m2
00:22 56.8 °F 50.4 °F 30.2 in Calm     79% 0 in 0 W/m2
00:27 56.7 °F 50.2 °F 30.2 in Calm     79% 0 in 0 W/m2
00:32 56.5 °F 50.4 °F 30.2 in Calm     80% 0 in 0 W/m2
00:37 56.1 °F 50 °F 30.2 in Calm     80% 0 in 0 W/m2
00:42 55.9 °F 49.8 °F 30.2 in Calm     80% 0 in 0 W/m2
00:47 55.9 °F 49.8 °F 30.2 in Calm     80% 0 in 0 W/m2
00:52 55.8 °F 49.6 °F 30.2 in Calm     80% 0 in 0 W/m2
00:57 55.8 °F 49.6 °F 30.2 in Calm     80% 0 in 0 W/m2
01:02 55.6 °F 49.5 °F 30.2 in Calm     80% 0 in 0 W/m2
01:07 55.4 °F 49.6 °F 30.2 in Calm     81% 0 in 0 W/m2
01:12 55.2 °F 49.5 °F 30.2 in Calm     81% 0 in 0 W/m2
01:17 55 °F 49.3 °F 30.2 in Calm     81% 0 in 0 W/m2
01:22 54.9 °F 49.5 °F 30.2 in Calm     82% 0 in 0 W/m2
01:28 54.7 °F 49.3 °F 30.2 in Calm     82% 0 in 0 W/m2
01:33 54.3 °F 48.9 °F 30.2 in Calm     82% 0 in 0 W/m2
01:38 54.3 °F 48.9 °F 30.2 in Calm     82% 0 in 0 W/m2
01:43 54.3 °F 49.3 °F 30.2 in Calm     83% 0 in 0 W/m2
01:48 54.3 °F 49.3 °F 30.2 in Calm     83% 0 in 0 W/m2
01:53 54.1 °F 49.1 °F 30.2 in Calm     83% 0 in 0 W/m2
01:58 54.1 °F 49.1 °F 30.2 in Calm     83% 0 in 0 W/m2
02:03 54 °F 48.9 °F 30.2 in Calm     83% 0 in 0 W/m2
02:08 53.8 °F 48.7 °F 30.2 in Calm     83% 0 in 0 W/m2
02:13 53.8 °F 48.7 °F 30.2 in Calm     83% 0 in 0 W/m2
02:18 53.4 °F 48.4 °F 30.2 in Calm     83% 0 in 0 W/m2
02:23 53.2 °F 48.6 °F 30.2 in Calm     84% 0 in 0 W/m2
02:28 53.2 °F 48.6 °F 30.2 in Calm     84% 0 in 0 W/m2
02:33 53.2 °F 48.9 °F 30.2 in Calm     85% 0 in 0 W/m2
02:38 53.2 °F 48.9 °F 30.2 in Calm     85% 0 in 0 W/m2
02:43 53.1 °F 48.7 °F 30.2 in Calm     85% 0 in 0 W/m2
02:48 53.1 °F 48.7 °F 30.2 in Calm     85% 0 in 0 W/m2
02:53 52.9 °F 48.6 °F 30.2 in Calm     85% 0 in 0 W/m2
02:58 52.9 °F 48.6 °F 30.2 in Calm     85% 0 in 0 W/m2
03:03 52.5 °F 48.4 °F 30.2 in Calm     86% 0 in 0 W/m2
03:08 52.5 °F 48.4 °F 30.2 in Calm     86% 0 in 0 W/m2
03:13 52.3 °F 48.2 °F 30.2 in Calm     86% 0 in 0 W/m2
03:18 52.3 °F 48.2 °F 30.2 in Calm     86% 0 in 0 W/m2
03:23 52.2 °F 48.4 °F 30.2 in Calm     87% 0 in 0 W/m2
03:28 52 °F 48.2 °F 30.2 in Calm     87% 0 in 0 W/m2
03:33 51.8 °F 48 °F 30.2 in Calm     87% 0 in 0 W/m2
03:38 51.6 °F 47.8 °F 30.2 in Calm     87% 0 in 0 W/m2
03:43 51.4 °F 48 °F 30.2 in Calm     88% 0 in 0 W/m2
03:48 51.4 °F 48 °F 30.2 in Calm     88% 0 in 0 W/m2
03:53 51.4 °F 48 °F 30.2 in Calm     88% 0 in 0 W/m2
03:58 51.3 °F 47.8 °F 30.2 in Calm     88% 0 in 0 W/m2
04:03 51.3 °F 48.2 °F 30.2 in Calm     89% 0 in 0 W/m2
04:08 51.3 °F 48.2 °F 30.2 in Calm     89% 0 in 0 W/m2
04:13 51.1 °F 48 °F 30.2 in Calm     89% 0 in 0 W/m2
04:18 50.9 °F 47.8 °F 30.2 in Calm     89% 0 in 0 W/m2
04:23 50.7 °F 47.7 °F 30.2 in Calm     89% 0 in 0 W/m2
04:28 50.5 °F 47.5 °F 30.2 in Calm     89% 0 in 0 W/m2
04:33 50.5 °F 47.5 °F 30.2 in Calm     89% 0 in 0 W/m2
04:38 50.4 °F 47.5 °F 30.2 in Calm     90% 0 in 0 W/m2
04:43 50.4 °F 47.5 °F 30.2 in Calm     90% 0 in 0 W/m2
04:48 50.4 °F 47.5 °F 30.2 in Calm     90% 0 in 0 W/m2
04:53 50.2 °F 47.3 °F 30.2 in Calm     90% 0 in 0 W/m2
04:58 50 °F 47.1 °F 30.2 in Calm     90% 0 in 0 W/m2
05:03 49.8 °F 47.3 °F 30.2 in Calm     91% 0 in 0 W/m2
05:08 49.8 °F 47.3 °F 30.2 in Calm     91% 0 in 0 W/m2
05:13 49.8 °F 47.3 °F 30.2 in Calm     91% 0 in 0 W/m2
05:18 49.8 °F 47.3 °F 30.2 in Calm     91% 0 in 0 W/m2
05:23 49.6 °F 47.1 °F 30.2 in Calm     91% 0 in 0 W/m2
05:28 49.8 °F 47.3 °F 30.2 in Calm     91% 0 in 0 W/m2
05:33 49.8 °F 47.3 °F 30.2 in Calm     91% 0 in 0 W/m2
05:38 49.8 °F 47.7 °F 30.2 in Calm     92% 0 in 5 W/m2
05:43 49.6 °F 47.1 °F 30.2 in Calm     91% 0 in 5 W/m2
05:48 49.6 °F 47.1 °F 30.2 in Calm     91% 0 in 9 W/m2
05:53 49.6 °F 47.5 °F 30.2 in Calm     92% 0 in 9 W/m2
05:58 49.6 °F 47.5 °F 30.2 in Calm     92% 0 in 11 W/m2
06:03 49.6 °F 47.5 °F 30.2 in Calm     92% 0 in 12 W/m2
06:08 49.8 °F 47.7 °F 30.2 in Calm     92% 0 in 14 W/m2
06:13 49.8 °F 47.7 °F 30.2 in Calm     92% 0 in 16 W/m2
06:18 49.8 °F 47.7 °F 30.2 in Calm     92% 0 in 18 W/m2
06:23 49.8 °F 47.7 °F 30.2 in Calm     92% 0 in 18 W/m2
06:28 50 °F 47.8 °F 30.2 in Calm     92% 0 in 19 W/m2
06:33 50.2 °F 48 °F 30.2 in Calm     92% 0 in 21 W/m2
06:38 50.2 °F 48 °F 30.2 in Calm     92% 0 in 21 W/m2
06:43 50.4 °F 48.2 °F 30.2 in Calm     92% 0 in 23 W/m2
06:48 50.7 °F 48.6 °F 30.2 in Calm   1 mph 92% 0 in 23 W/m2
06:53 51.1 °F 48.9 °F 30.2 in West 0.9 mph 1 mph 92% 0 in 25 W/m2
06:58 51.4 °F 49.3 °F 30.2 in Calm     92% 0 in 25 W/m2
07:03 51.8 °F 49.3 °F 30.2 in Calm     91% 0 in 26 W/m2
07:08 52.2 °F 49.6 °F 30.2 in Calm     91% 0 in 26 W/m2
07:13 52.3 °F 49.5 °F 30.2 in Calm     90% 0 in 26 W/m2
07:18 52.5 °F 49.6 °F 30.2 in Calm     90% 0 in 28 W/m2
07:23 52.9 °F 50 °F 30.2 in Calm     90% 0 in 162 W/m2
07:28 53.8 °F 50.5 °F 30.2 in Calm     89% 0 in 176 W/m2
07:33 54.9 °F 51.1 °F 30.2 in Calm     87% 0 in 190 W/m2
07:38 56.1 °F 52 °F 30.2 in Calm     86% 0 in 204 W/m2
07:43 57.7 °F 52.7 °F 30.2 in Calm     83% 0 in 221 W/m2
07:48 59 °F 52.5 °F 30.2 in Calm   2 mph 79% 0 in 236 W/m2
07:53 59.5 °F 52 °F 30.2 in Calm   1 mph 76% 0 in 250 W/m2
07:58 60.6 °F 52.7 °F 30.2 in North 0.9 mph 2 mph 75% 0 in 267 W/m2
08:03 61 °F 52.7 °F 30.2 in Calm   1 mph 74% 0 in 278 W/m2
08:08 61.3 °F 53.1 °F 30.2 in Calm   2 mph 74% 0 in 294 W/m2
08:13 61.7 °F 52.5 °F 30.2 in Calm   2 mph 72% 0 in 308 W/m2
08:18 61.5 °F 52.7 °F 30.2 in NNE 0.9 mph 1 mph 73% 0 in 320 W/m2
08:23 61.5 °F 53.2 °F 30.2 in Calm   2 mph 74% 0 in 295 W/m2
08:28 62.4 °F 53.6 °F 30.2 in NNE 0.9 mph 2 mph 73% 0 in 74 W/m2
08:33 63 °F 53.1 °F 30.2 in Calm   1 mph 70% 0 in 118 W/m2
08:38 63.1 °F 53.2 °F 30.2 in ENE 0.9 mph 2 mph 70% 0 in 42 W/m2
08:43 63.7 °F 53.8 °F 30.2 in NE 0.9 mph 2 mph 70% 0 in 42 W/m2
08:48 63.9 °F 53.4 °F 30.2 in Calm   3 mph 69% 0 in 44 W/m2
08:53 64 °F 53.2 °F 30.2 in SE 0.9 mph 1 mph 68% 0 in 42 W/m2
08:58 64.2 °F 53.1 °F 30.2 in Calm   1 mph 67% 0 in 40 W/m2
09:04 64.8 °F 53.1 °F 30.2 in NE 0.9 mph 1 mph 66% 0 in 40 W/m2
09:09 64.9 °F 53.2 °F 30.2 in NNW 0.9 mph 3 mph 66% 0 in 40 W/m2
09:14 65.1 °F 53.1 °F 30.2 in ENE 2.9 mph 4 mph 65% 0 in 40 W/m2
09:19 65.1 °F 53.4 °F 30.2 in NE 0.9 mph 1 mph 66% 0 in 40 W/m2
09:24 65.1 °F 53.4 °F 30.2 in NE 0.9 mph 4 mph 66% 0 in 40 W/m2
09:29 65.5 °F 53.4 °F 30.2 in Calm   2 mph 65% 0 in 39 W/m2
09:34 65.7 °F 53.6 °F 30.2 in ENE 0.9 mph 2 mph 65% 0 in 39 W/m2
09:39 66 °F 53.4 °F 30.2 in NNW 2 mph 3 mph 64% 0 in 40 W/m2
09:44 66.4 °F 54.3 °F 30.2 in ENE 2 mph 3 mph 65% 0 in 40 W/m2
09:49 66.9 °F 54 °F 30.2 in NE 2 mph 3 mph 63% 0 in 40 W/m2
09:54 67.3 °F 53.8 °F 30.2 in ENE 6.9 mph 7 mph 62% 0 in 79 W/m2
09:59 67.5 °F 53.6 °F 30.2 in ENE 2 mph 4 mph 61% 0 in 330 W/m2
10:04 67.8 °F 53.4 °F 30.2 in North 2 mph 6 mph 60% 0 in 561 W/m2
10:09 68.2 °F 54.1 °F 30.2 in Calm   2 mph 61% 0 in 603 W/m2
10:14 67.8 °F 53.4 °F 30.2 in Calm   1 mph 60% 0 in 589 W/m2
10:19 68.5 °F 55 °F 30.2 in Calm   2 mph 62% 0 in 56 W/m2
10:24 69.1 °F 54.1 °F 30.2 in Calm   3 mph 59% 0 in 642 W/m2
10:29 69.6 °F 54.1 °F 30.2 in NE 2 mph 3 mph 58% 0 in 613 W/m2
10:34 70 °F 54 °F 30.2 in ENE 2.9 mph 7 mph 57% 0 in 670 W/m2
10:39 70.2 °F 54.7 °F 30.2 in NE 2.9 mph 4 mph 58% 0 in 679 W/m2
10:44 70.2 °F 53.8 °F 30.2 in East 0.9 mph 7 mph 56% 0 in 691 W/m2
10:49 70.2 °F 54.1 °F 30.2 in Calm   3 mph 57% 0 in 705 W/m2
10:54 70.9 °F 54.3 °F 30.2 in East 0.9 mph 3 mph 56% 0 in 715 W/m2
10:59 71.8 °F 55.8 °F 30.2 in ESE 0.9 mph 2 mph 57% 0 in 729 W/m2
11:04 72.1 °F 54.1 °F 30.2 in Calm   2 mph 53% 0 in 744 W/m2
11:09 72.3 °F 53.8 °F 30.1 in SW 0.9 mph 2 mph 52% 0 in 749 W/m2
11:14 72.7 °F 54 °F 30.1 in SSE 0.9 mph 2 mph 52% 0 in 758 W/m2
11:19 73 °F 53.2 °F 30.1 in NNE 2 mph 4 mph 50% 0 in 770 W/m2
11:24 73.4 °F 53.6 °F 30.1 in East 0.9 mph 4 mph 50% 0 in 777 W/m2
11:29 73.8 °F 52.9 °F 30.1 in NNW 2 mph 6 mph 48% 0 in 784 W/m2
11:34 73 °F 52.2 °F 30.1 in East 0.9 mph 3 mph 48% 0 in 798 W/m2
11:39 73 °F 53.2 °F 30.1 in SE 0.9 mph 6 mph 50% 0 in 833 W/m2
11:44 73.6 °F 53.2 °F 30.1 in North 2 mph 4 mph 49% 0 in 847 W/m2
11:49 73.8 °F 53.4 °F 30.1 in East 2.9 mph 6 mph 49% 0 in 851 W/m2
11:54 73.8 °F 52.9 °F 30.1 in East 4.9 mph 6 mph 48% 0 in 798 W/m2
11:59 73.8 °F 52.9 °F 30.1 in Calm   2 mph 48% 0 in 805 W/m2
12:04 73.8 °F 52.9 °F 30.1 in Calm   6 mph 48% 0 in 946 W/m2
12:09 73.2 °F 52.9 °F 30.1 in West 6.9 mph 7 mph 49% 0 in 888 W/m2
12:14 73.2 °F 53.4 °F 30.1 in WSW 4 mph 6 mph 50% 0 in 858 W/m2
12:19 73.4 °F 53.1 °F 30.1 in WNW 4 mph 4 mph 49% 0 in 861 W/m2
12:24 73.8 °F 53.4 °F 30.1 in Calm   3 mph 49% 0 in 867 W/m2
Juneau County Weather
Compliments of Weather Underground - 2 mb